createdAt,value
2023-01-30T00:12:41.927Z,99602.75
2023-01-30T00:23:04.721Z,99591.94
2023-01-30T00:33:27.270Z,99580.34
2023-01-30T00:44:07.153Z,99577.09
2023-01-30T00:54:28.417Z,99569.63
2023-01-30T01:15:28.104Z,99532.31
2023-01-30T01:25:49.408Z,99519.06
2023-01-30T01:36:12.291Z,99514.13
2023-01-30T01:46:40.597Z,99506.72
2023-01-30T01:57:05.812Z,99509.16
2023-01-30T02:07:51.879Z,99498.31
2023-01-30T02:18:14.552Z,99497.50
2023-01-30T02:29:06.821Z,99462.59
2023-01-30T02:39:49.358Z,99457.63
2023-01-30T02:50:23.261Z,99441.03
2023-01-30T03:01:11.737Z,99430.22
2023-01-30T03:12:02.147Z,99424.41
2023-01-30T03:22:26.430Z,99421.13
2023-01-30T03:32:47.958Z,99400.38
2023-01-30T03:43:09.329Z,99409.47
2023-01-30T03:53:31.910Z,99391.22
2023-01-30T04:03:53.364Z,99383.75
2023-01-30T04:14:14.706Z,99374.63
2023-01-30T04:24:58.605Z,99368.03
2023-01-30T04:35:20.249Z,99364.69
2023-01-30T04:45:46.787Z,99368.81
2023-01-30T04:56:09.414Z,99353.03
2023-01-30T05:06:32.623Z,99329.00
2023-01-30T05:16:53.874Z,99316.56
2023-01-30T05:27:15.677Z,99311.53
2023-01-30T05:37:37.912Z,99303.25
2023-01-30T05:48:01.629Z,99279.97
2023-01-30T05:58:23.353Z,99278.25
2023-01-30T06:08:45.153Z,99279.81
2023-01-30T06:19:06.402Z,99273.94
2023-01-30T06:29:27.444Z,99270.56
2023-01-30T06:39:48.843Z,99248.91
2023-01-30T06:50:10.941Z,99249.69
2023-01-30T07:00:32.915Z,99250.41
2023-01-30T07:10:54.702Z,99251.19
2023-01-30T07:21:15.850Z,99242.78
2023-01-30T07:31:37.487Z,99235.22
2023-01-30T07:42:01.934Z,99208.41
2023-01-30T07:52:23.271Z,99195.78
2023-01-30T08:02:44.426Z,99186.44
2023-01-30T08:13:05.940Z,99167.78
2023-01-30T08:23:27.628Z,99139.41
2023-01-30T08:33:48.838Z,99132.38
2023-01-30T08:44:11.580Z,99123.09
2023-01-30T08:54:33.397Z,99110.97
2023-01-30T09:04:54.594Z,99101.97
2023-01-30T09:14:58.461Z,99089.78
2023-01-30T09:25:19.804Z,99082.44
2023-01-30T09:35:40.747Z,99053.63
2023-01-30T09:46:40.773Z,99041.16
2023-01-30T09:57:22.137Z,99025.69
2023-01-30T10:07:46.941Z,99009.53
2023-01-30T10:18:11.181Z,98965.22
2023-01-30T10:28:44.290Z,98953.97
2023-01-30T10:39:26.011Z,98909.47
2023-01-30T10:49:56.227Z,98893.72
2023-01-30T11:00:57.959Z,98877.00
2023-01-30T11:11:44.077Z,98846.97
2023-01-30T11:22:06.335Z,98837.31
2023-01-30T11:32:29.620Z,98810.47
2023-01-30T11:43:12.569Z,98789.66
2023-01-30T11:53:45.869Z,98772.47
2023-01-30T12:04:12.348Z,98762.72
2023-01-30T12:14:49.491Z,98751.53
2023-01-30T12:25:23.483Z,98731.00
2023-01-30T12:36:21.059Z,98716.91
2023-01-30T12:46:56.434Z,98713.44
2023-01-30T12:57:38.680Z,98703.63
2023-01-30T17:07:45.199Z,98557.22
2023-01-30T17:18:09.554Z,98550.56
2023-01-30T17:28:30.957Z,98550.50
2023-01-30T17:38:56.436Z,98545.50
2023-01-30T17:49:23.986Z,98525.81
2023-01-30T17:59:45.055Z,98532.59
2023-01-30T18:10:07.845Z,98532.63
2023-01-30T18:20:29.272Z,98526.19
2023-01-30T18:30:50.318Z,98527.22
2023-01-30T18:41:14.109Z,98525.75
2023-01-30T18:51:35.137Z,98526.78
2023-01-30T19:01:56.347Z,98512.81
2023-01-30T19:12:53.044Z,98504.63
2023-01-30T19:23:14.521Z,98497.59
2023-01-30T19:33:36.333Z,98499.50
2023-01-30T19:43:59.927Z,98504.78
2023-01-30T19:54:21.167Z,98499.13
2023-01-30T20:04:42.253Z,98493.41
2023-01-30T20:15:04.829Z,98498.63
2023-01-30T20:25:26.102Z,98483.09
2023-01-30T20:35:47.102Z,98491.56
2023-01-30T20:46:10.708Z,98494.19
2023-01-30T20:56:39.872Z,98497.56
2023-01-30T21:07:01.725Z,98499.28
2023-01-30T21:17:23.099Z,98509.19
2023-01-30T21:27:44.768Z,98479.41
2023-01-30T21:38:24.529Z,98481.13
2023-01-30T21:48:46.217Z,98486.13
2023-01-30T21:59:08.554Z,98468.84
2023-01-30T22:09:29.713Z,98472.88
2023-01-30T22:19:51.072Z,98465.34
2023-01-30T22:30:13.027Z,98468.59
2023-01-30T22:40:34.166Z,98459.38
2023-01-30T22:51:14.723Z,98464.31
2023-01-30T23:01:44.341Z,98465.94
2023-01-30T23:12:24.297Z,98448.66
2023-01-30T23:22:50.915Z,98456.88
2023-01-30T23:33:12.350Z,98451.09
2023-01-30T23:43:33.878Z,98455.19
2023-01-30T23:53:55.987Z,98455.19
